News    GLOBAL    TV    HD    3D    Ultra HD    Radio    Data    Temp.FTA    [-]    Neuzamcen

European Satellite Zapping & Directory
Channel Search:
Astra 2G (28.2°E) Transponder 95
26.0E>
<30.5E

Orbital position Satellite Norad .ini News channels Free To Air only Longitude Declination now Max declination Azimuth Elevation Last updated
28.2°E Astra 2E 39285 339 144 28.51°E -0.01° 0.06° N/A N/A 2024-05-14 12:54
28.2°E Astra 2G 40364 242 167 28.18°E -0.08° 0.08° N/A N/A 2024-05-15 23:02
28.2°E Astra 2F 38778 140 68 28.17°E 0.05° 0.05° N/A N/A 2024-05-13 18:53

Sorted by: Encryption: Režim zobrazení:

36 record(s) - Sorted by frequency - Most recent updates: CET

Pos Satellite Frequence Pol Txp Beam Standard Modulation SR/FEC Network, bitrate NID TID
28.2°E 36Astra 2G 11552.75H95EuropeDVB-S28PSK23000 2/344.5 Mb/s 22095 KingOfSat charts update form
Craft Extra
Teleshopping Sky Digital Neuzamcen 9537 2332 2333 eng  305  2332    2024-04-27 +
Jewellery Channel
Teleshopping Sky Digital Neuzamcen 55100 2346 2347 eng  267  2346    2024-04-27 +
High Street TV 2 Teleshopping Sky Digital Neuzamcen 55102 2352 2353 eng  273  2352    2024-04-27 +
High Street TV 3
Teleshopping Sky Digital Neuzamcen 55104 2338 2339 eng  266  2338    2024-04-27 +
NTD TV (New Tang Dynasty TV) General Sky Digital Neuzamcen 55106 2306 2307 eng  257  2306    2024-04-27 +
Noor TV Religious Sky Digital Neuzamcen 55109 2355 2356 eng  264  2355    2024-04-27 +
Pitaara Entertainment Sky Digital Neuzamcen 55110 2313 2323 eng  275  2313    2024-04-27 +
Clubland TV
Music Sky Digital Neuzamcen 55113 2557 2558 eng  256  2557    2024-04-27 +
Now Rock Music Sky Digital Neuzamcen 55114 2560 2561 eng  261  2560    2024-04-27 +
NDTV 24x7 News Sky Digital Neuzamcen 55116 2360 2361 eng  269  2360    2024-04-27 +

SonLife Broadcasting Network Religious Sky Digital Neuzamcen 55120 2331 2329 esp
2330 eng 
277  2331  2328  2024-04-27 +
Channel S General Sky Digital Neuzamcen 55142 2326 2324 eng  276  2326    2024-04-27 +
HUM Masala Entertainment Sky Digital Neuzamcen 55146 2343 2342 eng  281  2343    2024-04-27 +
PTV Global General Sky Digital Neuzamcen 55151 2335 2337 urd  259  2335    2024-04-27 +
Kanshi TV Entertainment Sky Digital Neuzamcen 55155 2327 2345 eng  279  2327    2024-04-27 +
Hum Europe General Sky Digital Neuzamcen 55181 2341 2340 urd  285  2341    2024-04-27 +
Deen TV Religious Sky Digital Neuzamcen 55185 2314 2315 eng  260  2314    2024-04-27 +
Capital XTRA Freesat
Sky Digital
Neuzamcen 9549   2320 eng  313  2320    2024-04-27
Radio X Freesat
Sky Digital
Neuzamcen 9559   2316 eng  318  2316    2024-04-27
Capital Freesat
Sky Digital
Neuzamcen 9560   2318 eng  319  2318    2024-04-27
Gold Freesat
Sky Digital
Neuzamcen 9561   2310  258  2310    2024-04-27
Khushkhabri Sky Digital Neuzamcen 9563   2336  320  2336    2024-04-27
Classic FM Freesat
Sky Digital
Neuzamcen 9570   2344 eng  263  2344    2024-04-27
LBC News Sky Digital Neuzamcen 55131   2334  282  2334    2024-04-27
Smooth Sky Digital Neuzamcen 55132   2312  270  2312    2024-04-27
Heart Dance Sky Digital Neuzamcen 55133   2311 eng  271  2311    2024-04-27
Virgin Radio Music Sky Digital Neuzamcen 55135   2321 eng  278  2321    2024-04-27 +
TWR Sky Digital Neuzamcen 55136   2322  280  2322    2024-04-27
Heart 90s Sky Digital Neuzamcen 55139   2325 eng  265  2325    2024-04-27
Panjab Radio Sky Digital Neuzamcen 55186   2305  295  2305    2024-04-27
Sukh Sagar Sky Digital Neuzamcen 55187   2308  296  2308    2024-04-27
BFBS Radio Sky Digital Neuzamcen 55188   2309  297  2309    2024-04-27
LBC Sky Digital Neuzamcen 55189   2317  298  2317    2024-04-27
Heart Sky Digital Neuzamcen 55190   2319  299  2319    2024-04-27
Heart 80s Sky Digital Neuzamcen 55191   2350  300  2350    2024-04-27
talkSPORT Sky Digital Neuzamcen 55198   2348 eng  283  2348    2024-04-27

Detailed transponder stream properties (11552.75 H)

SID Ident. PID Format Colorimetry Width Height Aspect Ratio Frame rate
Sampling rate
Bitrate mode Bitrate Scan type Last updated
9537 2332 MPEG Video Main, Main 4:2:0 544 576 1.778 25.000 FPS VBR Interlaced 2024-05-18
9537 2333 MPEG Audio, Layer 22 channels 48000 CBR 128000 2024-05-18
9549 2320 MPEG Audio, Layer 22 channels 48000 CBR 160000 2024-05-18
9559 2316 MPEG Audio, Layer 22 channels 48000 CBR 160000 2024-05-18
9560 2318 MPEG Audio, Layer 22 channels 48000 CBR 160000 2024-05-18
9561 2310 MPEG Audio, Layer 22 channels 48000 CBR 160000 2024-05-18
9563 2336 MPEG Audio, Layer 21 channel 48000 CBR 96000 2024-05-18
9570 2344 MPEG Audio, Layer 22 channels 48000 CBR 192000 2024-05-18
55100 2346 MPEG Video Main, Main 4:2:0 720 576 1.778 25.000 FPS VBR Interlaced 2024-05-18
55100 2347 MPEG Audio, Layer 22 channels 48000 CBR 192000 2024-05-18
55102 2352 MPEG Video Main, Main 4:2:0 544 576 1.778 25.000 FPS VBR Interlaced 2024-05-18
55102 2353 MPEG Audio, Layer 22 channels 48000 CBR 128000 2024-05-18
55104 2338 MPEG Video Main, Main 4:2:0 544 576 1.778 25.000 FPS VBR Interlaced 2024-05-18
55104 2339 MPEG Audio, Layer 22 channels 48000 CBR 128000 2024-05-18
55106 2306 MPEG Video Main, Main 4:2:0 544 576 1.778 25.000 FPS VBR Interlaced 2024-05-18
55106 2307 MPEG Audio, Layer 22 channels 48000 CBR 128000 2024-05-18
55109 2355 MPEG Video Main, Main 4:2:0 544 576 1.778 25.000 FPS VBR Interlaced 2024-05-18
55109 2356 MPEG Audio, Layer 22 channels 48000 CBR 128000 2024-05-18
55110 2313 MPEG Video Main, Main 4:2:0 544 576 1.778 25.000 FPS VBR Interlaced 2024-05-18
55110 2323 MPEG Audio, Layer 22 channels 48000 CBR 128000 2024-05-18
55113 2557 MPEG Video Main, Main 4:2:0 544 576 1.778 25.000 FPS VBR Interlaced 2024-05-18
55113 2558 MPEG Audio, Layer 22 channels 48000 CBR 192000 2024-05-18
55114 2560 MPEG Video Main, Main 4:2:0 544 576 1.778 25.000 FPS VBR Interlaced 2024-05-18
55114 2561 MPEG Audio, Layer 22 channels 48000 CBR 192000 2024-05-18
55116 2360 MPEG Video Main, Main 4:2:0 544 576 1.333 25.000 FPS VBR Interlaced 2024-05-18
55116 2361 MPEG Audio, Layer 22 channels 48000 CBR 128000 2024-05-18
55120 2328 Teletext 2024-05-18
55120 2329 MPEG Audio, Layer 22 channels 48000 CBR 128000 2024-05-18
55120 2330 MPEG Audio, Layer 22 channels 48000 CBR 128000 2024-05-18
55120 2331 MPEG Video Main, Main 4:2:0 544 576 1.778 25.000 FPS VBR Interlaced 2024-05-18
55131 2334 MPEG Audio, Layer 22 channels 48000 CBR 128000 2024-05-18
55132 2312 MPEG Audio, Layer 22 channels 48000 CBR 160000 2024-05-18
55133 2311 MPEG Audio, Layer 22 channels 48000 CBR 160000 2024-05-18
55135 2321 MPEG Audio, Layer 22 channels 48000 CBR 192000 2024-05-18
55136 2322 MPEG Audio, Layer 21 channel 48000 CBR 64000 2024-05-18
55139 2325 MPEG Audio, Layer 22 channels 48000 CBR 160000 2024-05-18
55142 2324 MPEG Audio, Layer 22 channels 48000 CBR 128000 2024-05-18
55142 2326 MPEG Video Main, Main 4:2:0 544 576 1.778 25.000 FPS VBR Interlaced 2024-05-18
55146 2342 MPEG Audio, Layer 22 channels 48000 CBR 192000 2024-05-18
55146 2343 MPEG Video Main, Main 4:2:0 544 576 1.333 25.000 FPS VBR Interlaced 2024-05-18
55151 2335 MPEG Video Main, Main 4:2:0 544 576 1.333 25.000 FPS VBR Interlaced 2024-05-18
55151 2337 MPEG Audio, Layer 22 channels 48000 CBR 128000 2024-05-18
55155 2327 MPEG Video Main, Main 4:2:0 544 576 1.778 25.000 FPS VBR Interlaced 2024-05-18
55155 2345 MPEG Audio, Layer 22 channels 48000 CBR 192000 2024-05-18
55181 2340 MPEG Audio, Layer 22 channels 48000 CBR 128000 2024-05-18
55181 2341 MPEG Video Main, Main 4:2:0 544 576 1.333 25.000 FPS VBR Interlaced 2024-05-18
55185 2314 MPEG Video Main, Main 4:2:0 720 576 1.778 25.000 FPS VBR Interlaced 2024-05-18
55185 2315 MPEG Audio, Layer 22 channels 48000 CBR 128000 2024-05-18
55186 2305 MPEG Audio, Layer 21 channel 48000 CBR 128000 2024-05-18
55187 2308 MPEG Audio, Layer 21 channel 48000 CBR 96000 2024-05-18
55188 2309 MPEG Audio, Layer 22 channels 48000 CBR 128000 2024-05-18
55189 2317 MPEG Audio, Layer 22 channels 48000 CBR 128000 2024-05-18
55190 2319 MPEG Audio, Layer 22 channels 48000 CBR 160000 2024-05-18
55191 2350 MPEG Audio, Layer 22 channels 48000 CBR 160000 2024-05-18
55198 2348 MPEG Audio, Layer 21 channel 32000 CBR 80000 2024-05-18

Your Comments / Updates

Legend

8K - Ultra HD

4K - Ultra HD

High Definition

Sporadic or full 16/9 transmission

     

Video: MPEG-4/AVC/H-264

     

Video: MPEG-H/HEVC/H-265

     

Video: MPEG-I/VVC/H-266

     

Neuzamcen

     

Encrypted

Displays a screenshot

3D

LIVE video broadcasts

+

Change Log

     

DVB-S

     

DVB-S2

     

DVB-S2X


PROFILE/PRIVACY - INDEX - NEWS - SATELLITES - PACKAGES - CHANNELS - SEARCH - BEAMS - FEEDS - CEMETERY - Your Comments / Updates

All contents on this site are protected by copyright and owned by KingOfSat, except contents shown in some screenshots that belong to their respective owners. Screenshots are only proposed to help illustrating, identifying and promoting corresponding TV channels. For all questions/remarks related to copyright, please contact KingOfSat webmaster.